Time;durP1;ratioP1;P1;durP2;ratioP2;P2;SDS_P1;SDS_P2;PMS_P1;PMS_P2;Temp;Humidity;BMP_temperature;BMP_pressure;BME280_temperature;BME280_humidity;BME280_pressure;Samples;Min_cycle;Max_cycle;Signal;HPM_P1;HPM_P2
2022/06/22 00:00:08;;;;;;;6.28;2.03;;;;;;;22.53;40.85;100016.19;4114443;28;20053;-67
2022/06/22 00:02:18;;;;;;;5.22;2.10;;;;;;;22.48;40.81;100019.03;4134379;28;20052;-67
2022/06/22 00:04:26;;;;;;;3.65;1.85;;;;;;;22.41;41.06;100018.41;4131166;28;20047;-66
2022/06/22 00:06:34;;;;;;;4.68;2.15;;;;;;;22.53;40.50;100022.34;4132085;28;20486;-66
2022/06/22 00:08:39;;;;;;;10.07;2.25;;;;;;;22.37;40.93;100018.59;4131384;28;20400;-66
2022/06/22 00:10:51;;;;;;;3.90;1.98;;;;;;;22.34;41.10;100021.38;4130592;28;20038;-66
2022/06/22 00:12:58;;;;;;;5.40;2.10;;;;;;;22.31;40.82;100017.91;4129326;28;20461;-67
2022/06/22 00:15:03;;;;;;;3.50;1.70;;;;;;;22.19;41.18;100005.16;4130532;28;20129;-67
2022/06/22 00:17:06;;;;;;;5.43;1.85;;;;;;;22.23;41.12;99998.84;4133663;28;20045;-67
2022/06/22 00:19:21;;;;;;;3.85;1.88;;;;;;;22.18;41.18;100000.81;4131169;28;20096;-66
2022/06/22 00:21:28;;;;;;;4.18;1.77;;;;;;;22.11;40.96;99988.75;4112903;28;20043;-67
2022/06/22 00:23:37;;;;;;;4.03;1.42;;;;;;;22.08;41.03;99994.19;4130190;28;20034;-67
2022/06/22 00:25:41;;;;;;;3.63;1.95;;;;;;;22.06;41.18;99996.00;4135082;28;20045;-66
2022/06/22 00:27:44;;;;;;;2.50;1.60;;;;;;;21.90;41.47;100001.06;4116395;28;20053;-67
2022/06/22 00:30:11;;;;;;;6.57;1.63;;;;;;;21.87;41.53;100002.03;4145222;28;20060;-67
2022/06/22 00:32:17;;;;;;;4.97;1.75;;;;;;;21.91;41.59;99992.22;4128397;28;20149;-68
2022/06/22 00:34:24;;;;;;;5.80;1.70;;;;;;;21.91;41.42;99987.78;4124310;28;20104;-66
2022/06/22 00:36:32;;;;;;;3.05;1.60;;;;;;;21.82;41.74;99976.72;4128917;28;20034;-66
2022/06/22 00:38:35;;;;;;;7.13;2.20;;;;;;;21.88;41.67;99979.09;4130198;28;20038;-67
2022/06/22 00:40:38;;;;;;;8.32;2.10;;;;;;;21.84;41.66;99977.50;4130949;28;20048;-67
2022/06/22 00:42:44;;;;;;;3.38;1.80;;;;;;;21.72;42.11;99968.28;4129084;28;20046;-66
2022/06/22 00:44:57;;;;;;;4.03;2.00;;;;;;;21.75;41.88;99973.44;4130162;28;20039;-67
2022/06/22 00:47:03;;;;;;;5.97;2.10;;;;;;;21.73;41.95;99962.06;4114233;28;20436;-67
2022/06/22 00:49:10;;;;;;;8.63;2.67;;;;;;;21.74;42.15;99958.47;4130261;28;20043;-67
2022/06/22 00:51:15;;;;;;;7.60;1.98;;;;;;;21.74;42.15;99955.84;4130260;28;20042;-67
2022/06/22 00:53:22;;;;;;;2.28;1.75;;;;;;;21.72;41.93;99958.53;4129975;28;20039;-66
2022/06/22 00:55:31;;;;;;;3.40;1.77;;;;;;;21.69;41.94;99955.19;4115919;28;20046;-67
2022/06/22 00:57:40;;;;;;;4.20;2.15;;;;;;;21.59;42.45;99952.03;4129261;28;20452;-67
2022/06/22 00:59:48;;;;;;;4.65;2.30;;;;;;;21.67;42.05;99952.59;4130316;28;20043;-67
2022/06/22 01:01:58;;;;;;;3.75;1.80;;;;;;;21.63;42.58;99955.44;4129976;28;20031;-67
2022/06/22 01:04:06;;;;;;;3.40;2.00;;;;;;;21.64;42.49;99955.38;4114993;28;20082;-67
2022/06/22 01:06:15;;;;;;;4.65;1.92;;;;;;;21.59;42.37;99958.16;4128904;28;20081;-67
2022/06/22 01:08:25;;;;;;;4.00;2.35;;;;;;;21.61;42.59;99955.47;4130531;28;20042;-67
2022/06/22 01:10:35;;;;;;;4.55;2.20;;;;;;;21.58;42.55;99959.13;4128531;28;20053;-67
2022/06/22 01:12:43;;;;;;;8.57;2.45;;;;;;;21.59;42.38;99960.81;4124648;28;20034;-67
2022/06/22 01:14:55;;;;;;;4.93;2.00;;;;;;;21.53;42.51;99954.91;4131181;28;20050;-67
2022/06/22 01:17:00;;;;;;;5.75;2.25;;;;;;;21.44;42.86;99950.81;4129256;28;20051;-68
2022/06/22 01:19:14;;;;;;;4.30;1.77;;;;;;;21.46;42.95;99959.53;4116928;28;20089;-67
2022/06/22 01:21:23;;;;;;;11.82;3.55;;;;;;;21.36;43.04;99953.78;4130105;28;20126;-67
2022/06/22 01:23:45;;;;;;;4.32;1.75;;;;;;;21.38;42.97;99953.72;4128653;28;20045;-67
2022/06/22 01:25:54;;;;;;;5.05;2.40;;;;;;;21.40;43.24;99944.78;4133181;28;20045;-68
2022/06/22 01:28:00;;;;;;;5.53;1.85;;;;;;;21.42;43.16;99942.94;4115909;28;20379;-67
2022/06/22 01:30:19;;;;;;;4.35;1.90;;;;;;;21.36;43.34;99948.47;4131122;28;20050;-67
2022/06/22 01:32:23;;;;;;;7.95;2.10;;;;;;;;;;4132722;28;20046;-67
2022/06/22 01:34:32;;;;;;;3.00;1.65;;;;;;;21.37;43.19;99957.25;4132860;28;20038;-67
2022/06/22 01:36:35;;;;;;;6.05;2.05;;;;;;;21.38;42.96;99967.78;4114279;28;20057;-67
2022/06/22 01:38:40;;;;;;;6.10;2.05;;;;;;;21.40;42.98;99968.56;4132401;28;20038;-67
2022/06/22 01:40:48;;;;;;;6.25;1.92;;;;;;;21.35;43.38;99956.44;4120368;28;20521;-66
2022/06/22 01:42:57;;;;;;;3.92;1.63;;;;;;;21.34;43.31;99962.69;4132084;28;20519;-67
2022/06/22 01:45:05;;;;;;;5.10;2.00;;;;;;;21.22;43.64;99964.84;4132638;28;20038;-67
2022/06/22 01:47:14;;;;;;;3.13;1.60;;;;;;;21.24;43.57;99963.00;4131241;28;20390;-67
2022/06/22 01:49:23;;;;;;;3.08;1.70;;;;;;;21.21;43.83;99962.28;4132493;28;20034;-67
2022/06/22 01:51:32;;;;;;;4.85;1.60;;;;;;;21.27;43.70;99965.56;4132388;28;20045;-67
2022/06/22 01:53:40;;;;;;;4.75;2.00;;;;;;;21.39;42.93;99971.28;4138640;28;20555;-67
2022/06/22 01:55:50;;;;;;;3.58;1.65;;;;;;;21.30;43.22;99974.28;4115574;28;20035;-67
2022/06/22 01:58:01;;;;;;;4.43;1.85;;;;;;;21.38;42.98;99966.94;4131832;28;20037;-67
2022/06/22 02:00:11;;;;;;;5.40;1.98;;;;;;;21.46;43.13;99978.06;4130331;28;20488;-67
2022/06/22 02:02:20;;;;;;;3.00;1.42;;;;;;;21.51;42.72;99977.91;4132111;28;20046;-66
2022/06/22 02:04:31;;;;;;;3.75;1.83;;;;;;;21.34;43.11;99973.25;4132601;28;20125;-66
2022/06/22 02:09:05;;;;;;;3.00;1.85;;;;;;;21.20;43.22;99976.41;4125188;28;20589;-66
2022/06/22 02:11:12;;;;;;;3.95;2.08;;;;;;;21.14;43.22;99980.13;4132056;28;20045;-67
2022/06/22 02:13:35;;;;;;;7.57;2.47;;;;;;;21.16;43.18;99973.03;4116733;28;20050;-66
2022/06/22 02:16:06;;;;;;;3.45;1.80;;;;;;;21.19;43.23;99972.91;4126992;28;20081;-66
2022/06/22 02:18:13;;;;;;;4.07;2.00;;;;;;;21.10;43.33;99967.97;4119260;28;20054;-66
2022/06/22 02:20:32;;;;;;;5.80;1.83;;;;;;;21.10;43.54;99962.69;4122484;28;20414;-66
2022/06/22 02:22:35;;;;;;;6.18;1.80;;;;;;;21.15;43.41;99955.44;4138626;28;20049;-67
2022/06/22 02:24:43;;;;;;;5.63;1.75;;;;;;;21.10;43.55;99947.69;4132462;28;20041;-66
2022/06/22 02:26:51;;;;;;;4.70;1.75;;;;;;;21.08;43.63;99943.38;4131601;28;20066;-66
2022/06/22 02:28:54;;;;;;;4.20;1.80;;;;;;;21.08;43.56;99938.06;4119486;28;20049;-66
2022/06/22 02:30:58;;;;;;;5.35;2.00;;;;;;;21.05;43.64;99938.19;4131618;28;20042;-67
2022/06/22 02:33:03;;;;;;;6.25;1.52;;;;;;;20.94;43.86;99930.69;4117232;28;20045;-66
2022/06/22 02:35:06;;;;;;;;;;;;;;;20.81;43.85;99930.28;4137365;28;20093;-67
2022/06/22 02:37:11;;;;;;;4.05;1.88;;;;;;;20.83;43.81;99923.13;4131187;28;20300;-66
2022/06/22 02:39:15;;;;;;;5.20;1.70;;;;;;;20.83;44.06;99911.72;4131118;28;20046;-66
2022/06/22 02:46:01;;;;;;;6.03;2.00;;;;;;;20.69;44.64;99928.94;4130103;28;20125;-66
2022/06/22 02:48:26;;;;;;;4.57;1.85;;;;;;;20.58;44.56;99929.28;4129346;28;20468;-66
2022/06/22 02:50:36;;;;;;;4.95;1.90;;;;;;;20.74;44.35;99932.25;4131960;28;20039;-66
2022/06/22 02:52:43;;;;;;;4.95;2.03;;;;;;;20.67;44.64;99935.19;4118814;28;20125;-66
2022/06/22 02:54:49;;;;;;;5.10;2.05;;;;;;;20.64;44.35;99922.06;4132628;28;20126;-66
2022/06/22 02:57:07;;;;;;;4.05;1.90;;;;;;;20.64;44.57;99932.63;4130895;28;20049;-66
2022/06/22 02:59:11;;;;;;;8.88;2.40;;;;;;;20.62;44.48;99922.13;4146156;28;20133;-67
2022/06/22 03:01:17;;;;;;;8.20;2.42;;;;;;;20.59;44.90;99919.59;4139787;28;20037;-67
2022/06/22 03:03:22;;;;;;;6.00;2.28;;;;;;;20.69;44.85;99912.22;4134813;28;20045;-66
2022/06/22 03:05:26;;;;;;;4.00;2.10;;;;;;;20.68;44.68;99910.50;4132237;28;20473;-66
2022/06/22 03:07:30;;;;;;;5.95;1.95;;;;;;;20.58;45.01;99913.44;4131081;28;20457;-67
2022/06/22 03:09:34;;;;;;;4.85;1.98;;;;;;;20.55;45.05;99918.81;4131367;28;20038;-67
2022/06/22 03:11:40;;;;;;;2.33;1.80;;;;;;;20.57;44.87;99919.66;4129405;28;20038;-66
2022/06/22 03:13:45;;;;;;;3.20;1.90;;;;;;;20.59;45.14;99927.53;4131271;28;20034;-66
2022/06/22 03:15:49;;;;;;;3.60;2.20;;;;;;;20.72;44.88;99925.31;4131399;28;20104;-66
2022/06/22 03:17:52;;;;;;;6.45;2.58;;;;;;;20.83;44.19;99915.22;4133403;28;20053;-65
2022/06/22 03:20:01;;;;;;;3.92;1.70;;;;;;;20.66;44.36;99928.13;4133270;28;20062;-66
2022/06/22 03:22:04;;;;;;;9.00;2.15;;;;;;;20.61;44.66;99946.81;4130851;28;20121;-66
2022/06/22 03:24:16;;;;;;;4.13;1.47;;;;;;;20.54;45.26;99948.78;4132901;28;20046;-66
2022/06/22 03:26:21;;;;;;;4.45;2.05;;;;;;;20.61;45.04;99951.22;4126088;28;20408;-67
2022/06/22 03:28:31;;;;;;;5.10;2.30;;;;;;;20.62;44.96;99950.28;4131266;28;20046;-66
2022/06/22 03:30:42;;;;;;;4.28;2.33;;;;;;;20.65;45.13;99955.50;4126084;28;20046;-67
2022/06/22 03:32:52;;;;;;;2.88;1.70;;;;;;;20.66;44.94;99960.75;4129833;28;20042;-66
2022/06/22 03:35:03;;;;;;;4.38;2.10;;;;;;;20.68;45.10;99963.34;4130923;28;20042;-65
2022/06/22 03:37:14;;;;;;;5.03;1.80;;;;;;;20.72;44.83;99970.22;4130950;28;20125;-66
2022/06/22 03:39:20;;;;;;;3.80;2.25;;;;;;;20.70;44.40;99970.25;4128778;28;20042;-66
2022/06/22 03:41:27;;;;;;;6.10;1.73;;;;;;;20.56;44.46;99957.53;4129075;28;20105;-66
2022/06/22 03:43:36;;;;;;;3.25;1.75;;;;;;;20.45;44.75;99964.97;4130671;28;20049;-65
2022/06/22 03:45:44;;;;;;;4.53;1.77;;;;;;;20.42;45.01;99969.50;4112876;28;20121;-65
2022/06/22 03:47:59;;;;;;;3.10;1.60;;;;;;;20.44;44.61;99968.50;4130106;28;20034;-66
2022/06/22 03:50:08;;;;;;;6.28;2.15;;;;;;;20.37;45.41;99967.00;4130864;28;20129;-66
2022/06/22 03:52:18;;;;;;;10.88;3.90;;;;;;;20.46;45.07;99964.06;4113215;28;20609;-66
2022/06/22 03:54:27;;;;;;;5.22;2.03;;;;;;;20.49;45.08;99958.66;4127147;28;20053;-66
2022/06/22 03:56:39;;;;;;;4.97;2.30;;;;;;;20.40;45.43;99951.06;4130813;28;20066;-66
2022/06/22 03:58:46;;;;;;;5.07;1.52;;;;;;;20.35;45.54;99963.56;4130329;28;20469;-66
2022/06/22 04:00:49;;;;;;;5.25;1.85;;;;;;;20.44;45.45;99963.22;4129611;28;20042;-65
2022/06/22 04:02:53;;;;;;;11.77;2.25;;;;;;;20.37;45.49;99961.72;4114393;28;20093;-66
2022/06/22 04:04:58;;;;;;;3.60;1.77;;;;;;;20.46;45.25;99974.63;4128514;28;20076;-66
2022/06/22 04:07:03;;;;;;;4.88;2.13;;;;;;;20.46;45.01;99977.25;4129954;28;20060;-66
2022/06/22 04:09:11;;;;;;;5.40;1.80;;;;;;;20.40;45.34;99970.41;4130527;28;20043;-66
2022/06/22 04:11:24;;;;;;;1.92;1.58;;;;;;;20.27;45.27;99984.94;4130655;28;20042;-66
2022/06/22 04:13:35;;;;;;;4.35;1.95;;;;;;;20.21;45.49;99979.88;4125030;28;20050;-66
2022/06/22 04:15:42;;;;;;;8.13;2.15;;;;;;;20.26;45.34;99982.34;4129812;28;20493;-67
2022/06/22 04:17:49;;;;;;;5.35;2.08;;;;;;;20.29;45.96;99988.38;4131124;28;20069;-64
2022/06/22 04:20:01;;;;;;;3.92;1.90;;;;;;;20.36;46.23;99986.41;4128048;28;20038;-63
2022/06/22 04:22:11;;;;;;;4.15;2.05;;;;;;;20.42;45.31;99991.47;4130424;28;20190;-63
2022/06/22 04:24:19;;;;;;;3.25;1.67;;;;;;;20.31;45.85;99988.31;4130394;28;20042;-63
2022/06/22 04:26:26;;;;;;;2.58;1.65;;;;;;;20.36;45.81;99983.78;4123087;28;20486;-63
2022/06/22 04:28:33;;;;;;;4.57;1.95;;;;;;;20.42;45.46;99986.19;4131329;28;20034;-63
2022/06/22 04:30:43;;;;;;;3.95;2.00;;;;;;;20.43;45.57;99987.94;4119398;28;20046;-65
2022/06/22 04:32:55;;;;;;;4.07;2.00;;;;;;;20.50;45.57;99989.44;4115618;28;20497;-64
2022/06/22 04:35:02;;;;;;;4.03;1.70;;;;;;;20.45;45.96;99985.22;4116387;28;20134;-63
2022/06/22 04:37:14;;;;;;;8.75;2.30;;;;;;;20.52;46.10;99987.59;4112566;28;20062;-64
2022/06/22 04:39:22;;;;;;;4.40;2.20;;;;;;;20.53;45.73;99994.63;4130073;28;20038;-63
2022/06/22 04:41:30;;;;;;;4.22;1.88;;;;;;;20.47;46.06;99992.19;4131185;28;20046;-63
2022/06/22 04:43:33;;;;;;;7.78;2.35;;;;;;;20.51;45.84;99993.78;4129641;28;20037;-63
2022/06/22 04:45:40;;;;;;;4.13;2.03;;;;;;;20.49;45.88;99997.41;4119815;28;20064;-64
2022/06/22 04:47:43;;;;;;;7.43;2.38;;;;;;;20.46;46.15;100003.66;4138975;28;20042;-64
2022/06/22 04:49:51;;;;;;;5.85;1.73;;;;;;;20.38;47.09;100001.28;4129616;28;20046;-63
2022/06/22 04:51:58;;;;;;;6.35;2.03;;;;;;;20.56;46.98;99999.78;4116914;28;20030;-63
2022/06/22 04:54:12;;;;;;;3.78;1.80;;;;;;;20.73;46.68;100003.66;4133045;28;20513;-63
2022/06/22 04:56:19;;;;;;;9.67;2.43;;;;;;;20.91;45.89;100007.44;4131239;28;20236;-63
2022/06/22 04:58:34;;;;;;;8.30;2.55;;;;;;;20.87;45.31;100011.94;4131390;28;20971;-64
2022/06/22 05:00:37;;;;;;;11.70;2.35;;;;;;;20.80;45.40;100007.78;4108431;28;20035;-63
2022/06/22 05:02:42;;;;;;;7.45;2.70;;;;;;;20.74;45.69;100013.31;4133465;28;20038;-63
2022/06/22 05:04:49;;;;;;;8.88;2.30;;;;;;;20.74;45.88;100010.66;4134283;28;20140;-65
2022/06/22 05:07:01;;;;;;;7.85;2.38;;;;;;;20.65;45.88;100025.03;4134340;28;20133;-64
2022/06/22 05:09:13;;;;;;;7.75;2.35;;;;;;;20.76;46.00;100022.03;4134364;28;20046;-64
2022/06/22 05:11:21;;;;;;;7.18;2.58;;;;;;;20.77;45.65;100029.03;4134245;28;20501;-63
2022/06/22 05:13:27;;;;;;;8.23;2.67;;;;;;;20.81;45.75;100029.78;4135786;28;20464;-63
2022/06/22 05:15:34;;;;;;;4.82;2.20;;;;;;;20.77;45.91;100036.97;4134084;28;20049;-63
2022/06/22 05:17:38;;;;;;;5.60;1.83;;;;;;;20.84;46.30;100037.63;4134183;28;20142;-63
2022/06/22 05:19:48;;;;;;;4.35;1.80;;;;;;;21.04;46.18;100044.81;4134128;28;20038;-63
2022/06/22 05:21:51;;;;;;;9.25;2.58;;;;;;;21.18;45.76;100041.69;4133729;28;20046;-63
2022/06/22 05:23:58;;;;;;;9.35;2.72;;;;;;;21.28;45.30;100036.00;4134064;28;20524;-64
2022/06/22 05:26:06;;;;;;;12.43;2.60;;;;;;;21.24;45.27;100037.03;4133938;28;20129;-63
2022/06/22 05:28:12;;;;;;;5.13;2.33;;;;;;;21.19;45.40;100035.50;4115942;28;20047;-64
2022/06/22 05:30:15;;;;;;;9.82;2.38;;;;;;;21.11;46.12;100035.75;4133911;28;20502;-63
2022/06/22 05:32:23;;;;;;;10.35;3.03;;;;;;;21.01;45.60;100032.59;4132524;28;20043;-63
2022/06/22 05:34:31;;;;;;;5.18;2.10;;;;;;;20.98;45.73;100031.84;4133915;28;20095;-64
2022/06/22 05:36:41;;;;;;;14.02;2.42;;;;;;;20.95;45.91;100034.59;4136117;28;20113;-61
2022/06/22 05:38:46;;;;;;;9.90;3.03;;;;;;;20.95;45.87;100027.53;4133800;28;20053;-64
2022/06/22 05:40:51;;;;;;;11.23;2.75;;;;;;;20.93;46.28;100030.22;4115434;28;20093;-63
2022/06/22 05:42:56;;;;;;;5.78;2.95;;;;;;;21.00;45.90;100038.81;4148203;28;20037;-64
2022/06/22 05:44:59;;;;;;;7.18;2.67;;;;;;;20.95;45.95;100039.88;4116250;28;20053;-63
2022/06/22 05:47:04;;;;;;;7.07;2.28;;;;;;;20.90;45.79;100040.06;4133662;28;20038;-63
2022/06/22 05:49:13;;;;;;;9.45;3.38;;;;;;;20.93;46.23;100047.88;4132371;28;20053;-64
2022/06/22 05:51:21;;;;;;;12.68;2.92;;;;;;;21.04;45.88;100043.06;4134217;28;20154;-64
2022/06/22 05:53:27;;;;;;;11.57;3.03;;;;;;;21.12;45.86;100042.78;4126410;28;20062;-63
2022/06/22 05:55:41;;;;;;;13.38;4.05;;;;;;;21.08;45.56;100044.69;4122271;28;20081;-64
2022/06/22 05:57:49;;;;;;;9.57;3.85;;;;;;;20.96;45.92;100042.47;4133596;28;20064;-64
2022/06/22 05:59:59;;;;;;;13.98;4.40;;;;;;;20.93;46.70;100034.66;4133471;28;20142;-63
2022/06/22 06:02:08;;;;;;;9.65;4.00;;;;;;;21.10;45.89;100042.00;4132062;28;20049;-64
2022/06/22 06:04:20;;;;;;;13.38;4.50;;;;;;;21.15;45.66;100039.16;4139930;28;20060;-63
2022/06/22 06:06:27;;;;;;;10.18;4.43;;;;;;;21.06;45.96;100035.94;4126356;28;20034;-63
2022/06/22 06:08:39;;;;;;;7.78;3.80;;;;;;;21.14;46.53;100038.28;4133475;28;20057;-63
2022/06/22 06:10:44;;;;;;;11.07;4.50;;;;;;;21.35;46.66;100046.34;4115000;28;20070;-63
2022/06/22 06:12:56;;;;;;;9.98;3.58;;;;;;;21.36;46.05;100046.31;4133176;28;20125;-63
2022/06/22 06:15:02;;;;;;;17.08;4.68;;;;;;;21.46;45.97;100049.47;4133447;28;20137;-64
2022/06/22 06:17:11;;;;;;;18.40;5.40;;;;;;;21.51;45.44;100049.31;4139324;28;20042;-64
2022/06/22 06:19:17;;;;;;;17.13;5.35;;;;;;;21.49;45.77;100043.19;4133481;28;20134;-64
2022/06/22 06:21:24;;;;;;;8.60;3.92;;;;;;;21.40;45.78;100057.63;4133320;28;20043;-63
2022/06/22 06:23:33;;;;;;;14.45;3.75;;;;;;;21.32;46.39;100049.09;4133143;28;20568;-63
2022/06/22 06:28:07;;;;;;;13.73;4.05;;;;;;;21.43;46.43;100042.50;4133136;28;20050;-63
2022/06/22 06:30:18;;;;;;;13.85;4.55;;;;;;;21.52;45.34;100043.13;4135060;28;20045;-63
2022/06/22 06:32:37;;;;;;;21.10;4.50;;;;;;;21.61;45.22;100045.41;4140351;28;20132;-63
2022/06/22 06:34:45;;;;;;;14.43;3.70;;;;;;;21.65;45.56;100060.25;4133124;28;20458;-64
2022/06/22 06:36:55;;;;;;;13.73;3.50;;;;;;;21.83;44.99;100056.03;4148180;28;20046;-64
2022/06/22 06:39:02;;;;;;;9.73;3.42;;;;;;;21.90;44.86;100057.53;4132981;28;20053;-64
2022/06/22 06:41:10;;;;;;;12.35;4.43;;;;;;;21.89;44.22;100054.91;4132930;28;20046;-63
2022/06/22 06:43:25;;;;;;;14.80;4.03;;;;;;;21.88;44.82;100056.72;4132675;28;20052;-63
2022/06/22 06:45:29;;;;;;;7.22;2.90;;;;;;;21.86;44.90;100047.09;4132327;28;20031;-63
2022/06/22 06:47:34;;;;;;;9.00;3.20;;;;;;;21.91;44.87;100053.09;4132711;28;20042;-63
2022/06/22 06:49:42;;;;;;;16.17;3.78;;;;;;;22.19;44.37;100054.63;4115587;28;20450;-64
2022/06/22 06:51:53;;;;;;;19.42;3.85;;;;;;;22.33;43.69;100048.78;4132523;28;20133;-63
2022/06/22 06:54:02;;;;;;;10.38;3.55;;;;;;;22.45;44.02;100049.16;4121932;28;20509;-63
2022/06/22 06:56:11;;;;;;;10.52;3.30;;;;;;;22.57;42.50;100045.13;4132793;28;20505;-63
2022/06/22 06:58:19;;;;;;;6.03;2.13;;;;;;;22.58;43.24;100056.59;4132629;28;20038;-63
2022/06/22 07:00:22;;;;;;;10.45;3.00;;;;;;;22.59;44.01;100048.56;4116454;28;20042;-63
2022/06/22 07:02:35;;;;;;;11.35;2.58;;;;;;;22.57;44.89;100050.41;4132228;28;20050;-63
2022/06/22 07:04:38;;;;;;;10.63;3.03;;;;;;;22.54;44.25;100045.25;4115324;28;20046;-63
2022/06/22 07:06:41;;;;;;;9.95;3.38;;;;;;;22.69;42.80;100049.03;4132394;28;20038;-63
2022/06/22 07:08:48;;;;;;;8.98;2.95;;;;;;;22.66;43.48;100044.75;4115189;28;20516;-63
2022/06/22 07:10:55;;;;;;;8.73;2.40;;;;;;;22.62;43.49;100044.94;4132466;28;20050;-63
2022/06/22 07:13:01;;;;;;;8.00;2.63;;;;;;;22.63;43.88;100047.53;4131188;28;20043;-63
2022/06/22 07:15:07;;;;;;;11.88;3.55;;;;;;;22.56;44.24;100054.00;4134873;28;20048;-62
2022/06/22 07:17:15;;;;;;;12.30;3.22;;;;;;;22.46;44.15;100057.97;4146528;28;20038;-67
2022/06/22 07:19:22;;;;;;;7.07;2.90;;;;;;;22.43;44.65;100063.41;4116334;28;20506;-67
2022/06/22 07:21:32;;;;;;;8.43;3.10;;;;;;;22.48;45.20;100058.75;4116157;28;20105;-67
2022/06/22 07:23:41;;;;;;;7.00;2.78;;;;;;;22.49;45.52;100071.09;4115924;28;20049;-67
2022/06/22 07:25:49;;;;;;;7.32;3.10;;;;;;;22.55;45.68;100069.97;4099001;29;20437;-68
2022/06/22 07:27:58;;;;;;;9.57;3.15;;;;;;;22.57;45.10;100066.31;4115947;28;20055;-66
2022/06/22 07:30:04;;;;;;;12.48;2.88;;;;;;;22.63;45.33;100066.06;4141202;28;20046;-69
2022/06/22 07:32:16;;;;;;;9.05;3.20;;;;;;;22.73;45.72;100070.97;4131763;28;20436;-69
2022/06/22 07:34:26;;;;;;;9.25;2.90;;;;;;;22.80;45.47;100061.84;4132145;28;20047;-68
2022/06/22 07:36:34;;;;;;;9.80;3.00;;;;;;;22.85;45.09;100054.53;4132201;28;20042;-68
2022/06/22 07:38:46;;;;;;;18.30;4.30;;;;;;;23.01;44.33;100052.97;4132017;28;20152;-68
2022/06/22 07:43:11;;;;;;;19.02;4.38;;;;;;;23.18;44.26;100061.97;4134638;28;20046;-68
2022/06/22 07:45:17;;;;;;;8.95;2.70;;;;;;;23.24;44.77;100059.03;4131786;28;20046;-68
2022/06/22 07:47:27;;;;;;;16.20;3.53;;;;;;;23.34;45.29;100051.53;4131939;28;20061;-68
2022/06/22 07:49:35;;;;;;;10.43;3.65;;;;;;;23.34;45.32;100052.38;4131895;28;20054;-68
2022/06/22 07:51:43;;;;;;;6.43;2.53;;;;;;;23.24;45.26;100051.09;4130764;28;20047;-69
2022/06/22 07:53:50;;;;;;;12.82;3.92;;;;;;;23.19;45.06;100066.38;4135797;28;20042;-68
2022/06/22 07:56:01;;;;;;;8.38;3.17;;;;;;;23.11;44.93;100060.53;4131834;28;20053;-68
2022/06/22 07:58:22;;;;;;;9.98;3.13;;;;;;;23.13;45.35;100067.50;4131820;28;20046;-68
2022/06/22 08:00:28;;;;;;;13.00;3.25;;;;;;;23.07;45.50;100072.16;4131747;28;20048;-68
2022/06/22 08:02:39;;;;;;;8.73;2.78;;;;;;;23.12;45.85;100067.56;4131434;28;20038;-68
2022/06/22 08:04:49;;;;;;;11.05;2.85;;;;;;;22.99;45.53;100069.84;4131694;28;20049;-68
2022/06/22 08:06:56;;;;;;;12.27;3.50;;;;;;;23.00;45.78;100059.19;4119713;28;20430;-68
2022/06/22 08:09:03;;;;;;;15.50;3.42;;;;;;;23.02;45.38;100062.59;4122108;28;20067;-68
2022/06/22 08:11:10;;;;;;;11.07;2.92;;;;;;;22.99;45.75;100062.75;4131688;28;20045;-68
2022/06/22 08:13:17;;;;;;;8.65;3.13;;;;;;;23.04;46.20;100059.03;4131138;28;20042;-68
2022/06/22 08:15:23;;;;;;;13.88;3.78;;;;;;;23.14;45.65;100055.09;4114258;28;20521;-68
2022/06/22 08:17:40;;;;;;;9.75;2.83;;;;;;;23.11;46.02;100049.91;4131455;28;20042;-68
2022/06/22 08:19:44;;;;;;;10.45;2.70;;;;;;;23.20;45.27;100043.34;4113597;28;20053;-67
2022/06/22 08:21:50;;;;;;;6.35;3.10;;;;;;;23.24;45.36;100036.97;4118002;28;20049;-67
2022/06/22 08:23:55;;;;;;;10.90;2.95;;;;;;;23.31;44.05;100044.56;4143241;28;20050;-67
2022/06/22 08:25:58;;;;;;;8.95;3.22;;;;;;;23.37;44.72;100031.97;4146286;28;20077;-70
2022/06/22 08:28:04;;;;;;;12.52;2.72;;;;;;;23.42;44.01;100038.81;4098008;28;20534;-70
2022/06/22 08:30:10;;;;;;;10.65;2.40;;;;;;;23.49;43.20;100045.50;4131507;28;20042;-71
2022/06/22 08:32:19;;;;;;;6.28;2.25;;;;;;;23.50;45.05;100047.25;4131048;28;20046;-72
2022/06/22 08:34:32;;;;;;;7.30;2.00;;;;;;;23.52;45.05;100047.16;4129782;28;20077;-72
2022/06/22 08:36:41;;;;;;;5.88;2.58;;;;;;;23.56;44.86;100039.94;4121994;28;20129;-70
2022/06/22 08:38:49;;;;;;;5.63;2.03;;;;;;;23.64;44.22;100046.63;4131406;28;20142;-70
2022/06/22 08:41:01;;;;;;;6.05;2.78;;;;;;;23.74;44.25;100043.53;4131230;28;20046;-71
2022/06/22 08:43:11;;;;;;;4.95;2.33;;;;;;;23.78;44.16;100029.19;4130750;28;20505;-71
2022/06/22 08:45:31;;;;;;;4.80;2.35;;;;;;;23.81;43.64;100019.25;4131223;28;20133;-69
2022/06/22 08:47:53;;;;;;;6.15;2.33;;;;;;;23.74;44.36;100016.97;4131165;28;20046;-70
2022/06/22 08:50:12;;;;;;;7.05;2.20;;;;;;;23.77;44.82;100017.72;4130210;28;20057;-70
2022/06/22 08:52:31;;;;;;;3.90;1.90;;;;;;;23.82;44.62;100020.13;4130904;28;20058;-69
2022/06/22 08:55:07;;;;;;;3.35;1.95;;;;;;;23.79;44.10;100023.78;4131337;28;20045;-70
2022/06/22 08:57:18;;;;;;;4.80;2.13;;;;;;;23.79;44.41;100031.75;4129815;28;20104;-70
2022/06/22 08:59:45;;;;;;;4.47;2.00;;;;;;;23.78;44.40;100029.19;4131254;28;20041;-69
2022/06/22 09:01:59;;;;;;;6.38;2.00;;;;;;;23.67;45.13;100029.66;4130842;28;20038;-69
2022/06/22 09:04:25;;;;;;;5.67;1.83;;;;;;;23.62;45.35;100026.38;4129044;28;20050;-70
2022/06/22 09:06:53;;;;;;;7.10;1.95;;;;;;;23.59;45.31;100019.41;4124700;28;20466;-69
2022/06/22 09:09:26;;;;;;;8.63;2.28;;;;;;;23.58;45.56;100017.69;4127084;28;20157;-69
2022/06/22 09:11:33;;;;;;;5.90;2.50;;;;;;;23.57;45.83;100020.41;4119468;28;20044;-69
2022/06/22 09:13:57;;;;;;;8.55;2.47;;;;;;;23.53;45.98;100025.88;4136085;28;20085;-69
2022/06/22 09:16:12;;;;;;;6.57;2.22;;;;;;;23.47;46.16;100022.66;4131123;28;20409;-69
2022/06/22 09:18:42;;;;;;;6.82;2.42;;;;;;;23.43;46.48;100029.03;4130215;28;20038;-69
2022/06/22 09:20:59;;;;;;;2.40;1.58;;;;;;;23.38;46.10;100025.72;4126999;28;20081;-69
2022/06/22 09:23:21;;;;;;;8.13;2.22;;;;;;;23.37;45.84;100031.97;4130689;28;20422;-69
2022/06/22 09:25:38;;;;;;;7.10;2.58;;;;;;;23.32;45.52;100033.03;4113733;28;20086;-69
2022/06/22 09:27:45;;;;;;;5.90;2.15;;;;;;;23.33;45.32;100042.72;4130962;28;20043;-69
2022/06/22 09:30:13;;;;;;;4.45;1.70;;;;;;;23.38;45.45;100044.28;4131026;28;20072;-70
2022/06/22 09:32:44;;;;;;;5.15;1.95;;;;;;;23.40;46.79;100047.75;4131647;28;20468;-69
2022/06/22 09:35:17;;;;;;;9.93;2.63;;;;;;;23.41;47.29;100046.78;4130720;28;20507;-69
2022/06/22 09:37:39;;;;;;;7.80;2.58;;;;;;;23.38;47.33;100037.22;4114800;28;20498;-69
2022/06/22 09:40:04;;;;;;;3.50;1.80;;;;;;;23.39;47.91;100043.38;4114839;28;20105;-69
2022/06/22 09:42:25;;;;;;;6.00;2.20;;;;;;;23.40;49.00;100043.28;4114507;28;20038;-69
2022/06/22 09:44:44;;;;;;;7.35;2.67;;;;;;;23.44;49.08;100046.69;4097788;29;20100;-70
2022/06/22 09:47:21;;;;;;;4.95;2.30;;;;;;;23.47;49.37;100042.09;4130061;28;20121;-71
2022/06/22 09:49:46;;;;;;;9.05;2.10;;;;;;;23.40;48.53;100042.44;4084490;29;20090;-71
2022/06/22 09:52:07;;;;;;;7.85;2.10;;;;;;;23.39;48.62;100048.66;4100183;28;20047;-69
2022/06/22 09:57:43;;;;;;;6.55;2.45;;;;;;;23.42;47.82;100043.22;4052563;29;20057;-70
2022/06/22 10:00:02;;;;;;;4.57;1.90;;;;;;;23.42;48.27;100051.19;4117390;28;20049;-70
2022/06/22 10:02:50;;;;;;;5.70;1.88;;;;;;;23.45;46.44;100045.72;4145931;28;20417;-69
2022/06/22 10:05:34;;;;;;;4.65;1.75;;;;;;;23.52;46.90;100047.16;4097736;28;20129;-69
2022/06/22 10:07:48;;;;;;;2.78;1.73;;;;;;;23.54;47.63;100055.94;4133462;28;20057;-69
2022/06/22 10:10:02;;;;;;;4.43;2.10;;;;;;;23.56;45.57;100051.41;4133352;28;20034;-71
2022/06/22 10:12:20;;;;;;;5.75;2.25;;;;;;;23.63;45.62;100047.53;4132976;28;20401;-69
2022/06/22 10:15:00;;;;;;;3.65;1.60;;;;;;;23.64;46.07;100049.28;4132750;28;20121;-70
2022/06/22 10:17:19;;;;;;;6.32;2.03;;;;;;;23.68;45.79;100055.28;4098221;28;20099;-69
2022/06/22 10:19:55;;;;;;;7.78;1.70;;;;;;;23.67;46.21;100053.56;4116050;28;20038;-69
2022/06/22 10:22:10;;;;;;;5.35;1.88;;;;;;;23.64;47.05;100065.19;4132960;28;20084;-69
2022/06/22 10:24:34;;;;;;;4.47;1.65;;;;;;;23.61;46.45;100062.69;4132818;28;20038;-69